Time;durP1;ratioP1;P1;durP2;ratioP2;P2;SDS_P1;SDS_P2;PMS_P1;PMS_P2;Temp;Humidity;BMP_temperature;BMP_pressure;BME280_temperature;BME280_humidity;BME280_pressure;Samples;Min_cycle;Max_cycle;Signal;HPM_P1;HPM_P2
2021/01/26 00:00:37;;;;;;;28.02;14.68;;;;;;;3.24;61.53;98900.38;5085931;28;20068;-79
2021/01/26 00:03:04;;;;;;;30.50;15.00;;;;;;;3.24;61.28;98907.28;5090476;28;20044;-78
2021/01/26 00:05:30;;;;;;;27.58;12.93;;;;;;;3.22;61.49;98903.91;5090785;28;20040;-78
2021/01/26 00:07:57;;;;;;;28.23;13.80;;;;;;;3.19;61.47;98904.84;5090204;28;20109;-77
2021/01/26 00:10:23;;;;;;;26.70;13.40;;;;;;;3.18;61.64;98902.31;5086036;28;20044;-78
2021/01/26 00:12:49;;;;;;;25.38;12.75;;;;;;;3.20;61.57;98898.78;5090209;28;20040;-78
2021/01/26 00:15:16;;;;;;;25.02;12.43;;;;;;;3.18;61.59;98910.91;5085033;28;20494;-78
2021/01/26 00:17:42;;;;;;;29.08;14.20;;;;;;;3.14;61.68;98914.50;5090003;28;20487;-78
2021/01/26 00:20:13;;;;;;;21.75;12.40;;;;;;;3.10;61.85;98915.47;5090293;28;20040;-77
2021/01/26 00:22:39;;;;;;;27.98;13.00;;;;;;;3.12;61.78;98912.81;5093769;28;20134;-79
2021/01/26 00:25:17;;;;;;;29.27;14.25;;;;;;;3.12;61.85;98908.50;5094570;28;20131;-78
2021/01/26 00:27:43;;;;;;;27.08;13.98;;;;;;;3.16;61.80;98917.88;5094299;28;20080;-76
2021/01/26 00:30:15;;;;;;;25.08;12.73;;;;;;;3.17;61.74;98910.97;5094298;28;20051;-76
2021/01/26 00:32:41;;;;;;;26.95;13.20;;;;;;;3.16;61.91;98912.72;5094370;28;20575;-75
2021/01/26 00:35:09;;;;;;;28.75;13.88;;;;;;;3.13;61.77;98917.97;5089275;28;20131;-76
2021/01/26 00:37:35;;;;;;;31.63;15.05;;;;;;;3.15;62.05;98917.94;5092789;28;20174;-76
2021/01/26 00:40:01;;;;;;;33.65;14.70;;;;;;;3.16;61.88;98922.22;5093840;28;20048;-75
2021/01/26 00:42:29;;;;;;;33.13;14.45;;;;;;;3.16;61.93;98919.63;5093871;28;20040;-77
2021/01/26 00:44:55;;;;;;;28.02;14.15;;;;;;;3.16;61.87;98923.06;5093905;28;20467;-76
2021/01/26 00:47:21;;;;;;;27.58;14.48;;;;;;;3.13;62.25;98917.97;5093481;28;20411;-76
2021/01/26 00:49:47;;;;;;;28.52;14.98;;;;;;;3.12;62.05;98920.59;5093476;28;20048;-75
2021/01/26 00:52:13;;;;;;;28.55;14.48;;;;;;;3.11;62.09;98927.50;5091247;28;20040;-76
2021/01/26 00:54:41;;;;;;;26.52;13.82;;;;;;;3.12;62.11;98925.75;5093998;28;20167;-76
2021/01/26 00:57:07;;;;;;;28.83;14.57;;;;;;;3.11;62.11;98927.50;5093590;28;20522;-75
2021/01/26 00:59:34;;;;;;;31.10;14.77;;;;;;;3.11;62.16;98927.50;5093784;28;20434;-75
2021/01/26 01:02:00;;;;;;;28.55;13.70;;;;;;;3.16;62.13;98923.06;5093386;28;20078;-76
2021/01/26 01:04:27;;;;;;;34.78;14.73;;;;;;;3.11;62.17;98922.34;5094203;28;20063;-75
2021/01/26 01:06:53;;;;;;;25.42;13.35;;;;;;;3.10;62.12;98919.78;5094380;28;20068;-75
2021/01/26 01:09:20;;;;;;;29.77;14.32;;;;;;;3.06;62.07;98919.88;5094383;28;20044;-76
2021/01/26 01:11:46;;;;;;;25.48;13.88;;;;;;;3.08;62.31;98914.66;5094429;28;20071;-76
2021/01/26 01:14:12;;;;;;;24.13;12.95;;;;;;;3.09;62.23;98918.09;5093987;28;20070;-75
2021/01/26 01:16:39;;;;;;;29.67;14.32;;;;;;;3.08;62.28;98906.88;5093729;28;20050;-74
2021/01/26 01:19:06;;;;;;;26.73;13.45;;;;;;;3.07;62.33;98912.97;5079785;28;20054;-75
2021/01/26 01:21:32;;;;;;;26.70;13.38;;;;;;;3.01;62.44;98923.50;5094114;28;20059;-76
2021/01/26 01:23:58;;;;;;;28.73;13.98;;;;;;;2.97;62.61;98907.22;5093688;28;20044;-76
2021/01/26 01:26:24;;;;;;;25.73;14.13;;;;;;;3.01;62.72;98916.59;5093956;28;20044;-76
2021/01/26 01:28:50;;;;;;;27.13;14.75;;;;;;;3.04;62.48;98915.66;5093582;28;20105;-76
2021/01/26 01:31:16;;;;;;;27.65;14.13;;;;;;;3.05;62.61;98922.53;5094396;28;20044;-79
2021/01/26 01:33:43;;;;;;;31.13;15.07;;;;;;;3.07;62.74;98920.72;5094511;28;20063;-80
2021/01/26 01:36:09;;;;;;;30.50;14.73;;;;;;;3.10;62.71;98924.97;5093799;28;20048;-78
2021/01/26 01:38:35;;;;;;;25.88;13.73;;;;;;;3.06;62.73;98921.63;5094130;28;20052;-79
2021/01/26 01:41:02;;;;;;;30.55;15.23;;;;;;;2.99;62.72;98922.72;5093706;28;20044;-79
2021/01/26 01:43:28;;;;;;;27.45;13.48;;;;;;;2.98;62.70;98905.47;5093385;28;20050;-79
2021/01/26 01:45:54;;;;;;;23.98;13.73;;;;;;;2.95;62.98;98914.19;5094963;28;20044;-80
2021/01/26 01:48:24;;;;;;;27.08;13.45;;;;;;;2.92;63.09;98911.69;5094188;28;20071;-80
2021/01/26 01:50:54;;;;;;;28.90;13.95;;;;;;;2.91;63.24;98912.56;5094457;28;20083;-79
2021/01/26 01:53:23;;;;;;;29.05;14.10;;;;;;;2.94;63.04;98906.47;5094917;28;20056;-79
2021/01/26 01:55:55;;;;;;;23.77;13.75;;;;;;;2.93;62.91;98918.56;5094080;28;20105;-79
2021/01/26 01:58:27;;;;;;;30.90;13.82;;;;;;;2.91;63.08;98909.97;5095072;28;20135;-78
2021/01/26 02:00:57;;;;;;;28.27;14.02;;;;;;;2.94;62.99;98914.22;5094540;28;20039;-80
2021/01/26 02:03:27;;;;;;;31.88;15.60;;;;;;;2.97;62.94;98914.13;5093480;28;20396;-78
2021/01/26 02:05:56;;;;;;;27.35;13.48;;;;;;;3.00;62.82;98916.63;5093186;28;20044;-79
2021/01/26 02:08:27;;;;;;;25.88;13.00;;;;;;;3.03;63.06;98919.97;5093582;28;20047;-77
2021/01/26 02:10:53;;;;;;;21.90;11.47;;;;;;;3.10;62.86;98912.88;5093778;28;20048;-77
2021/01/26 02:13:19;;;;;;;21.20;12.25;;;;;;;3.09;62.66;98916.34;5096546;28;20044;-77
2021/01/26 02:15:45;;;;;;;24.48;13.13;;;;;;;3.12;62.84;98928.34;5097734;28;20088;-78
2021/01/26 02:18:28;;;;;;;30.25;14.77;;;;;;;3.10;63.06;98933.59;5096176;28;20066;-75
2021/01/26 02:21:48;;;;;;;31.67;14.52;;;;;;;3.19;62.77;98925.56;5094469;28;20048;-75
2021/01/26 02:24:41;;;;;;;27.70;12.98;;;;;;;3.17;62.57;98927.34;5094413;28;20051;-76
2021/01/26 02:27:33;;;;;;;22.52;12.10;;;;;;;3.18;62.89;98935.97;5094384;28;20148;-76
2021/01/26 02:30:30;;;;;;;26.02;14.18;;;;;;;3.19;62.70;98925.56;5094583;28;20091;-79
2021/01/26 02:33:36;;;;;;;25.73;13.40;;;;;;;3.20;62.71;98932.44;5092268;28;20040;-78
2021/01/26 02:36:53;;;;;;;26.45;13.35;;;;;;;3.24;62.89;98933.19;5093949;28;20117;-78
2021/01/26 02:39:41;;;;;;;27.27;12.68;;;;;;;3.18;62.85;98936.81;5046630;28;20052;-78
2021/01/26 02:42:29;;;;;;;28.80;13.75;;;;;;;3.16;62.64;98941.19;5094044;28;20044;-78
2021/01/26 02:45:07;;;;;;;26.25;13.48;;;;;;;3.15;62.84;98938.66;5093932;28;20052;-78
2021/01/26 02:47:43;;;;;;;26.42;13.77;;;;;;;3.18;62.99;98946.31;5094288;28;20105;-78
2021/01/26 02:50:15;;;;;;;28.98;14.25;;;;;;;3.16;62.89;98946.38;5093742;28;20509;-78
2021/01/26 02:52:53;;;;;;;25.48;13.82;;;;;;;3.14;62.90;98937.81;5094242;28;20066;-79
2021/01/26 02:55:30;;;;;;;25.23;13.20;;;;;;;3.19;62.93;98946.28;5094336;28;20455;-77
2021/01/26 02:58:04;;;;;;;28.92;13.50;;;;;;;3.25;62.66;98940.06;5093969;28;20097;-77
2021/01/26 03:00:33;;;;;;;23.95;13.15;;;;;;;3.19;62.70;98951.47;5093514;28;20076;-77
2021/01/26 03:03:05;;;;;;;23.08;12.18;;;;;;;3.13;63.18;98943.88;5092507;28;20063;-77
2021/01/26 03:05:39;;;;;;;27.73;13.98;;;;;;;3.09;63.10;98954.34;5093081;28;20135;-79
2021/01/26 03:08:11;;;;;;;23.33;12.45;;;;;;;3.08;63.00;98953.50;5092194;28;20056;-79
2021/01/26 03:10:42;;;;;;;24.27;12.52;;;;;;;3.06;63.05;98956.13;5092722;28;20090;-78
2021/01/26 03:13:11;;;;;;;30.67;14.80;;;;;;;3.10;62.92;98958.63;5094098;28;20054;-79
2021/01/26 03:15:42;;;;;;;34.35;15.15;;;;;;;3.09;62.87;98960.38;5093562;28;20048;-78
2021/01/26 03:18:14;;;;;;;22.30;13.02;;;;;;;3.09;62.98;98957.78;5093828;28;20055;-80
2021/01/26 03:20:41;;;;;;;;;;;;;;;3.28;62.57;98963.28;5093666;28;20538;-79
2021/01/26 03:23:12;;;;;;;23.85;12.43;;;;;;;3.19;62.56;98960.97;5093689;28;20011;-78
2021/01/26 03:25:44;;;;;;;21.02;12.35;;;;;;;3.10;62.61;98967.25;5093599;28;20123;-79
2021/01/26 03:28:12;;;;;;;27.17;13.45;;;;;;;3.06;62.99;98963.91;5094116;28;20475;-76
2021/01/26 03:30:41;;;;;;;26.10;13.43;;;;;;;3.10;62.88;98964.66;5093297;28;20123;-76
2021/01/26 03:33:11;;;;;;;26.30;13.82;;;;;;;3.11;62.82;98966.34;5091943;28;20562;-76
2021/01/26 03:35:38;;;;;;;26.88;11.35;;;;;;;3.11;62.80;98962.91;5093118;28;20062;-77
2021/01/26 03:38:10;;;;;;;22.02;12.07;;;;;;;3.06;62.84;98963.06;5092186;28;20332;-76
2021/01/26 03:40:36;;;;;;;22.00;12.90;;;;;;;3.08;62.87;98968.19;5093550;28;20151;-76
2021/01/26 03:43:04;;;;;;;25.92;13.73;;;;;;;3.06;62.83;98974.25;5094017;28;20135;-76
2021/01/26 03:45:30;;;;;;;26.10;13.23;;;;;;;3.03;62.91;98976.09;5093223;28;20048;-77
2021/01/26 03:48:10;;;;;;;26.95;13.88;;;;;;;3.03;62.92;98968.31;5093383;28;20177;-77
2021/01/26 03:50:46;;;;;;;25.40;13.85;;;;;;;3.02;63.12;98974.38;5092535;28;20050;-78
2021/01/26 03:53:51;;;;;;;24.35;12.93;;;;;;;3.04;62.86;98972.59;5093266;28;20094;-75
2021/01/26 03:56:22;;;;;;;25.10;11.93;;;;;;;3.06;62.69;98973.41;5092137;28;20052;-76
2021/01/26 03:59:06;;;;;;;21.23;11.20;;;;;;;3.01;62.97;98976.13;5092965;28;20048;-75
2021/01/26 04:01:39;;;;;;;24.10;12.68;;;;;;;3.02;62.90;98972.66;5092734;28;20101;-76
2021/01/26 04:04:16;;;;;;;22.15;10.95;;;;;;;3.02;62.81;98977.81;5091455;28;20441;-76
2021/01/26 04:06:46;;;;;;;20.98;10.80;;;;;;;2.99;62.94;98975.34;5090132;28;20242;-76
2021/01/26 04:09:16;;;;;;;22.00;11.93;;;;;;;2.98;62.64;98978.81;5091717;28;20475;-75
2021/01/26 04:11:48;;;;;;;23.60;12.87;;;;;;;2.99;62.86;98983.09;5092719;28;20178;-75
2021/01/26 04:14:22;;;;;;;22.23;11.80;;;;;;;3.01;62.96;98977.88;5092559;28;20048;-74
2021/01/26 04:16:53;;;;;;;25.67;12.20;;;;;;;3.00;62.75;98977.03;5092275;28;20059;-76
2021/01/26 04:19:24;;;;;;;25.15;13.07;;;;;;;3.02;62.82;98976.97;5092836;28;20384;-75
2021/01/26 04:21:50;;;;;;;;;;;;;;;3.16;62.49;98984.38;5092863;28;20058;-75
2021/01/26 04:24:18;;;;;;;23.50;11.43;;;;;;;3.05;62.75;98992.44;5092234;28;20463;-76
2021/01/26 04:26:46;;;;;;;24.58;12.35;;;;;;;2.98;62.90;98989.16;5092372;28;20123;-75
2021/01/26 04:29:13;;;;;;;28.38;14.05;;;;;;;3.02;63.02;98985.59;5092627;28;20048;-76
2021/01/26 04:31:40;;;;;;;23.38;11.68;;;;;;;3.01;63.00;98988.22;5092251;28;20079;-76
2021/01/26 04:34:06;;;;;;;26.50;13.30;;;;;;;2.99;62.84;98988.28;5090765;28;20667;-75
2021/01/26 04:36:32;;;;;;;23.35;12.82;;;;;;;3.00;63.02;98986.53;5091681;28;20044;-76
2021/01/26 04:38:58;;;;;;;24.48;12.65;;;;;;;3.00;62.83;98992.56;5090975;28;20483;-76
2021/01/26 04:41:33;;;;;;;25.42;12.25;;;;;;;2.97;63.06;98996.97;5092291;28;20691;-75
2021/01/26 04:44:29;;;;;;;25.05;12.15;;;;;;;2.95;63.17;98988.41;5092077;28;20418;-75
2021/01/26 04:47:07;;;;;;;29.63;13.70;;;;;;;2.90;63.20;98998.00;5092214;28;20044;-76
2021/01/26 04:49:40;;;;;;;29.00;14.75;;;;;;;2.86;63.14;98991.22;5092338;28;20410;-76
2021/01/26 04:52:13;;;;;;;28.60;14.85;;;;;;;2.86;63.37;98993.81;5092378;28;20131;-75
2021/01/26 04:54:52;;;;;;;23.25;12.48;;;;;;;2.83;63.35;98984.41;5092060;28;20055;-76
2021/01/26 04:57:53;;;;;;;23.30;12.02;;;;;;;2.82;63.34;98994.81;5092391;28;20165;-76
2021/01/26 05:00:33;;;;;;;28.15;13.70;;;;;;;2.87;63.20;98993.78;5092409;28;20052;-77
2021/01/26 05:03:29;;;;;;;28.55;13.93;;;;;;;2.92;63.13;99004.03;5093340;28;20127;-76
2021/01/26 05:06:00;;;;;;;26.45;13.25;;;;;;;2.93;63.15;99003.13;5090584;28;20044;-77
2021/01/26 05:08:32;;;;;;;29.93;14.63;;;;;;;2.94;63.05;99002.25;5095591;28;20048;-76
2021/01/26 05:11:04;;;;;;;32.15;14.68;;;;;;;2.97;63.03;99003.00;5096159;28;20817;-76
2021/01/26 05:13:36;;;;;;;28.65;14.18;;;;;;;2.97;63.11;99002.16;5096328;28;20135;-76
2021/01/26 05:16:09;;;;;;;27.25;12.43;;;;;;;3.00;62.82;99004.66;5095437;28;20040;-77
2021/01/26 05:18:42;;;;;;;27.70;14.98;;;;;;;2.96;63.28;99005.63;5096228;28;20055;-76
2021/01/26 05:21:18;;;;;;;29.58;15.38;;;;;;;2.91;63.18;99007.47;5095716;28;20052;-76
2021/01/26 05:23:50;;;;;;;30.23;14.32;;;;;;;2.87;63.38;99006.72;5096128;28;20091;-76
2021/01/26 05:26:17;;;;;;;25.88;14.20;;;;;;;2.93;63.25;99008.31;5095596;28;20127;-76
2021/01/26 05:28:44;;;;;;;34.92;15.65;;;;;;;3.00;63.07;99018.44;5095736;28;20470;-76
2021/01/26 05:31:15;;;;;;;32.45;15.73;;;;;;;3.02;63.07;99011.50;5095441;28;20052;-75
2021/01/26 05:33:44;;;;;;;32.97;16.83;;;;;;;2.96;63.25;99009.06;5095207;28;20135;-76
2021/01/26 05:36:12;;;;;;;33.50;15.60;;;;;;;2.93;63.24;99009.16;5093165;28;20048;-76
2021/01/26 05:38:38;;;;;;;31.15;14.65;;;;;;;2.89;63.48;99014.44;5095201;28;20084;-76
2021/01/26 05:41:09;;;;;;;29.83;13.95;;;;;;;2.90;63.59;99013.53;5094980;28;20136;-76
2021/01/26 05:43:36;;;;;;;22.63;11.18;;;;;;;2.93;63.17;99014.34;5094507;28;20475;-75
2021/01/26 05:46:07;;;;;;;25.70;12.85;;;;;;;2.87;63.23;99016.22;5094415;28;20050;-75
2021/01/26 05:48:48;;;;;;;28.27;13.73;;;;;;;2.81;63.70;99018.97;5094873;28;20044;-74
2021/01/26 05:51:19;;;;;;;24.63;12.65;;;;;;;2.78;63.52;99017.31;5085954;28;20303;-76
2021/01/26 05:53:50;;;;;;;19.75;10.60;;;;;;;2.81;63.38;99016.41;5084379;28;20044;-74
2021/01/26 05:56:17;;;;;;;;;;;;;;;2.93;63.22;99021.25;5078025;28;20531;-75
2021/01/26 05:58:47;;;;;;;26.75;12.10;;;;;;;2.77;63.42;99020.81;5085155;28;19920;-76
2021/01/26 06:01:24;;;;;;;24.63;12.85;;;;;;;2.71;63.57;99015.81;5084780;28;20047;-74
2021/01/26 06:04:05;;;;;;;25.67;12.98;;;;;;;2.69;63.75;99020.13;5084843;28;20131;-76
2021/01/26 06:06:31;;;;;;;22.77;12.50;;;;;;;2.71;63.77;99029.59;5086117;28;20131;-75
2021/01/26 06:08:58;;;;;;;28.27;13.32;;;;;;;2.70;63.49;99030.44;5083394;28;20049;-75
2021/01/26 06:11:29;;;;;;;22.27;11.75;;;;;;;2.69;63.71;99028.75;5085377;28;20495;-74
2021/01/26 06:14:08;;;;;;;32.08;14.00;;;;;;;2.63;64.02;99031.50;5083593;28;20040;-75
2021/01/26 06:16:34;;;;;;;21.25;11.13;;;;;;;2.65;63.72;99027.13;5079640;28;20123;-75
2021/01/26 06:19:04;;;;;;;23.17;12.18;;;;;;;2.61;63.97;99030.69;5081749;28;20058;-76
2021/01/26 06:21:32;;;;;;;27.63;12.98;;;;;;;2.65;63.97;99040.06;5078010;28;20066;-75
2021/01/26 06:24:00;;;;;;;21.77;12.77;;;;;;;2.69;63.82;99033.09;5082210;28;20041;-75
2021/01/26 06:26:34;;;;;;;26.27;14.15;;;;;;;2.66;63.97;99039.19;5083766;28;20040;-74
2021/01/26 06:29:18;;;;;;;24.58;13.77;;;;;;;2.63;64.19;99053.94;5088694;28;20080;-74
2021/01/26 06:31:58;;;;;;;26.38;13.45;;;;;;;2.60;64.19;99047.13;5094157;28;20052;-79
2021/01/26 06:34:39;;;;;;;26.27;13.82;;;;;;;2.62;63.93;99055.69;5088338;28;20074;-77
2021/01/26 06:37:24;;;;;;;29.42;14.52;;;;;;;2.67;64.02;99064.16;5091132;28;20052;-76
2021/01/26 06:40:17;;;;;;;29.88;14.50;;;;;;;2.66;64.13;99065.06;5088090;28;20048;-77
2021/01/26 06:42:52;;;;;;;24.75;12.48;;;;;;;2.70;63.73;99069.28;5088688;28;20044;-78
2021/01/26 06:45:28;;;;;;;29.60;14.88;;;;;;;2.74;63.76;99070.91;5088128;28;20076;-79
2021/01/26 06:48:25;;;;;;;31.45;14.90;;;;;;;2.81;63.78;99078.50;5088987;28;20066;-78
2021/01/26 06:51:34;;;;;;;32.97;15.68;;;;;;;2.84;63.78;99075.84;5091759;28;20052;-77
2021/01/26 06:54:26;;;;;;;35.60;15.10;;;;;;;2.89;63.45;99082.59;5089694;28;20052;-79
2021/01/26 06:57:22;;;;;;;34.47;17.15;;;;;;;2.99;63.57;99084.06;5082857;28;20126;-78
2021/01/26 07:00:07;;;;;;;26.95;13.55;;;;;;;3.03;63.10;99088.28;5085735;28;20407;-78
2021/01/26 07:02:59;;;;;;;28.60;13.75;;;;;;;3.04;63.53;99096.88;5089026;28;20051;-79
2021/01/26 07:05:53;;;;;;;28.02;13.10;;;;;;;3.07;63.45;99089.03;5083581;28;20098;-78
2021/01/26 07:09:02;;;;;;;29.70;14.65;;;;;;;3.09;63.51;99095.00;5092768;28;20470;-78
2021/01/26 07:12:02;;;;;;;27.63;14.13;;;;;;;3.13;63.29;99073.34;5073171;28;20538;-80
2021/01/26 07:14:43;;;;;;;27.15;13.05;;;;;;;3.17;63.34;99074.13;5091785;28;20082;-79
2021/01/26 07:17:09;;;;;;;28.60;12.80;;;;;;;3.24;63.21;99079.06;5086772;28;20056;-77
2021/01/26 07:19:56;;;;;;;30.73;15.57;;;;;;;3.27;63.12;99081.56;5092483;28;20129;-78
2021/01/26 07:23:02;;;;;;;32.35;13.93;;;;;;;3.36;63.24;99083.94;5092707;28;20108;-80
2021/01/26 07:25:42;;;;;;;32.40;13.93;;;;;;;3.34;63.14;99077.94;5089347;28;20502;-78
2021/01/26 07:28:54;;;;;;;28.48;14.45;;;;;;;3.41;63.09;99082.94;5092306;28;20126;-78
2021/01/26 07:31:26;;;;;;;29.38;14.30;;;;;;;3.49;62.85;99091.34;5052676;28;20059;-79
2021/01/26 07:34:01;;;;;;;27.52;14.13;;;;;;;3.57;62.58;99087.66;5091847;28;20044;-80
2021/01/26 07:36:33;;;;;;;30.90;14.95;;;;;;;3.62;62.51;99095.31;5089614;28;20430;-78
2021/01/26 07:39:05;;;;;;;27.15;15.07;;;;;;;3.68;62.52;99095.13;5092796;28;20094;-79
2021/01/26 07:41:37;;;;;;;27.52;13.70;;;;;;;3.64;62.65;99094.34;5091716;28;20056;-78
2021/01/26 07:44:13;;;;;;;25.80;13.75;;;;;;;3.58;62.78;99096.28;5091846;28;20039;-80
2021/01/26 07:46:52;;;;;;;29.73;14.13;;;;;;;3.61;62.82;99098.78;5091644;28;20048;-79
2021/01/26 07:49:25;;;;;;;34.15;15.55;;;;;;;3.62;62.69;99097.88;5093094;28;20079;-79
2021/01/26 07:51:55;;;;;;;25.45;13.55;;;;;;;3.53;63.15;99095.53;5091225;28;20064;-80
2021/01/26 07:54:30;;;;;;;29.35;14.52;;;;;;;3.46;63.17;99088.84;5090644;28;20051;-79
2021/01/26 07:57:00;;;;;;;28.17;13.88;;;;;;;3.44;63.26;99095.81;5085965;28;20539;-81
2021/01/26 07:59:29;;;;;;;26.67;12.77;;;;;;;3.42;63.35;99095.84;5082472;28;20043;-81
2021/01/26 08:01:59;;;;;;;34.60;15.73;;;;;;;3.41;63.26;99095.91;5088010;28;20044;-78
2021/01/26 08:04:28;;;;;;;33.28;15.88;;;;;;;3.42;63.30;99098.44;5083759;28;20047;-78
2021/01/26 08:06:59;;;;;;;37.58;19.48;;;;;;;3.48;63.12;99097.41;5084381;28;20468;-79
2021/01/26 08:09:35;;;;;;;30.08;14.10;;;;;;;3.51;63.17;99105.09;5087295;28;20442;-78
2021/01/26 08:12:05;;;;;;;31.02;14.88;;;;;;;3.48;62.94;99106.03;5079025;28;20487;-77
2021/01/26 08:14:37;;;;;;;32.80;15.23;;;;;;;3.48;62.79;99110.38;5087892;28;20518;-78
2021/01/26 08:17:09;;;;;;;33.22;15.10;;;;;;;3.46;62.98;99106.97;5088398;28;20039;-77
2021/01/26 08:19:39;;;;;;;32.00;15.50;;;;;;;3.49;62.82;99105.16;5080065;28;20515;-80
2021/01/26 08:22:22;;;;;;;34.35;15.75;;;;;;;3.45;62.71;99110.47;5085447;28;20135;-79
2021/01/26 08:24:58;;;;;;;28.20;15.40;;;;;;;3.48;62.66;99107.78;5081903;28;20242;-81
2021/01/26 08:27:32;;;;;;;30.27;14.50;;;;;;;3.58;62.20;99119.59;5085336;28;20052;-79
2021/01/26 08:30:00;;;;;;;36.63;17.60;;;;;;;3.60;62.41;99118.66;5085567;28;20046;-79
2021/01/26 08:32:48;;;;;;;32.53;17.13;;;;;;;3.65;62.38;99121.97;5085198;28;20395;-78
2021/01/26 08:35:44;;;;;;;39.10;17.45;;;;;;;3.70;62.05;99118.41;5089506;28;20048;-83
2021/01/26 08:38:44;;;;;;;33.70;18.13;;;;;;;3.78;62.05;99126.81;5085891;28;20499;-79
2021/01/26 08:41:11;;;;;;;30.80;17.35;;;;;;;3.84;61.75;99127.47;5083972;28;20062;-80
2021/01/26 08:43:46;;;;;;;36.78;18.67;;;;;;;3.84;61.84;99126.63;5092470;28;20479;-79
2021/01/26 08:46:32;;;;;;;34.22;16.33;;;;;;;3.85;61.99;99129.19;5092325;28;20048;-80
2021/01/26 08:49:02;;;;;;;28.23;15.57;;;;;;;3.85;61.80;99134.38;5089616;28;20040;-81
2021/01/26 08:51:29;;;;;;;26.50;15.68;;;;;;;3.88;61.69;99138.59;5090153;28;20079;-79
2021/01/26 08:53:57;;;;;;;37.20;17.55;;;;;;;3.90;61.46;99137.66;5089289;28;20040;-78
2021/01/26 08:56:36;;;;;;;31.60;16.35;;;;;;;3.92;61.56;99145.41;5092941;28;20075;-80
2021/01/26 08:59:06;;;;;;;31.50;18.13;;;;;;;4.03;61.39;99148.53;5090467;28;20114;-78
2021/01/26 09:01:40;;;;;;;39.72;18.30;;;;;;;4.03;61.32;99145.94;5088388;28;20076;-79
2021/01/26 09:04:40;;;;;;;32.13;17.00;;;;;;;3.93;61.53;99147.94;5083550;28;20044;-77
2021/01/26 09:07:29;;;;;;;28.23;16.58;;;;;;;3.90;61.46;99145.44;5091726;28;20044;-78
2021/01/26 09:09:57;;;;;;;25.65;14.27;;;;;;;3.97;61.29;99152.19;5087018;28;20048;-77
2021/01/26 09:12:26;;;;;;;30.13;15.93;;;;;;;4.10;60.90;99157.84;5083809;28;20049;-78
2021/01/26 09:15:02;;;;;;;31.88;16.70;;;;;;;4.17;60.81;99151.59;5090999;28;20055;-77
2021/01/26 09:17:32;;;;;;;38.33;17.35;;;;;;;4.37;60.47;99150.97;5089309;28;20080;-78
2021/01/26 09:20:08;;;;;;;34.97;18.27;;;;;;;4.49;60.16;99158.38;5085128;28;20078;-78
2021/01/26 09:22:34;;;;;;;33.08;16.75;;;;;;;4.50;59.74;99160.06;5088076;28;20044;-77
2021/01/26 09:25:13;;;;;;;33.80;16.40;;;;;;;4.49;59.93;99160.13;5087250;28;20525;-78
2021/01/26 09:27:39;;;;;;;35.65;16.20;;;;;;;4.49;59.92;99158.38;5088335;28;20123;-77
2021/01/26 09:30:12;;;;;;;27.75;15.00;;;;;;;4.58;59.61;99163.31;5089193;28;20527;-78
2021/01/26 09:32:40;;;;;;;24.80;13.95;;;;;;;4.67;59.42;99158.69;5087852;28;20124;-78
2021/01/26 09:35:21;;;;;;;29.20;14.85;;;;;;;4.69;59.29;99157.75;5088883;28;20040;-80
2021/01/26 09:37:58;;;;;;;26.83;14.57;;;;;;;4.81;59.05;99164.31;5093201;28;20104;-82
2021/01/26 09:40:26;;;;;;;27.48;13.95;;;;;;;4.75;58.77;99169.69;5079454;28;20177;-79
2021/01/26 09:43:07;;;;;;;26.40;13.77;;;;;;;4.76;59.01;99166.19;5103057;28;20052;-77
2021/01/26 09:45:33;;;;;;;26.85;13.93;;;;;;;4.77;58.92;99170.47;5081876;28;20056;-76
2021/01/26 09:47:59;;;;;;;28.45;15.30;;;;;;;4.83;58.95;99165.97;5093766;28;20043;-78
2021/01/26 09:50:28;;;;;;;30.77;15.05;;;;;;;4.90;58.69;99166.59;5094825;28;20632;-77
2021/01/26 09:53:06;;;;;;;26.73;13.73;;;;;;;4.89;58.55;99168.34;5091871;28;20052;-82
2021/01/26 09:55:34;;;;;;;27.38;15.15;;;;;;;4.93;58.49;99174.28;5092534;28;20065;-81
2021/01/26 09:58:00;;;;;;;30.42;16.48;;;;;;;4.87;58.64;99172.75;5090566;28;20159;-88
2021/01/26 10:00:29;;;;;;;27.52;14.80;;;;;;;4.80;58.91;99173.00;5101966;28;20047;-87
2021/01/26 10:02:59;;;;;;;31.83;16.20;;;;;;;4.73;58.79;99176.66;5101850;28;20404;-90
2021/01/26 10:05:29;;;;;;;29.77;15.45;;;;;;;4.68;58.78;99184.63;5094961;28;20079;-86
2021/01/26 10:08:10;;;;;;;25.73;13.43;;;;;;;4.64;58.89;99177.81;5089650;28;20120;-87
2021/01/26 10:10:37;;;;;;;;;;;;;;;4.76;58.86;99184.34;5094743;28;20233;-83
2021/01/26 10:13:25;;;;;;;23.92;12.27;;;;;;;4.62;58.98;99182.22;5093577;28;19924;-84
2021/01/26 10:15:51;;;;;;;26.77;14.20;;;;;;;4.59;58.79;99179.72;5088167;28;20080;-87
2021/01/26 10:18:19;;;;;;;25.13;13.73;;;;;;;4.56;58.78;99180.63;5087979;28;20048;-88
2021/01/26 10:20:55;;;;;;;25.27;12.63;;;;;;;4.55;58.94;99178.09;5089216;28;20427;-86
2021/01/26 10:23:26;;;;;;;28.40;15.50;;;;;;;4.56;58.72;99183.22;5091139;28;20062;-87
2021/01/26 10:26:04;;;;;;;20.87;11.23;;;;;;;4.54;59.04;99176.41;5080102;28;20123;-85
2021/01/26 10:28:30;;;;;;;25.30;14.48;;;;;;;4.53;59.11;99180.75;5085627;28;20097;-87
2021/01/26 10:30:57;;;;;;;25.67;14.38;;;;;;;4.46;59.35;99179.25;5089720;28;20090;-86
2021/01/26 10:33:31;;;;;;;28.05;14.82;;;;;;;4.42;59.38;99179.38;5095061;28;20063;-84
2021/01/26 10:36:25;;;;;;;27.13;13.88;;;;;;;4.43;59.66;99179.34;5094885;28;20048;-87
2021/01/26 10:38:53;;;;;;;27.98;15.20;;;;;;;4.56;59.11;99183.22;5094829;28;20075;-87
2021/01/26 10:41:23;;;;;;;27.17;15.00;;;;;;;4.62;59.08;99178.78;5089357;28;20130;-79
2021/01/26 10:44:01;;;;;;;26.75;14.63;;;;;;;4.64;59.14;99180.41;5090256;28;20055;-79
2021/01/26 10:46:32;;;;;;;28.52;14.70;;;;;;;4.49;59.37;99178.28;5085314;28;20048;-79
2021/01/26 10:49:10;;;;;;;28.52;14.73;;;;;;;4.34;59.69;99178.75;5085093;28;20044;-80
2021/01/26 10:51:39;;;;;;;34.42;14.90;;;;;;;4.24;59.90;99178.19;5085312;28;20048;-78
2021/01/26 10:54:06;;;;;;;33.08;17.10;;;;;;;4.29;59.65;99182.34;5084613;28;20156;-77
2021/01/26 10:56:33;;;;;;;28.88;15.45;;;;;;;4.37;59.75;99179.50;5085156;28;20048;-76
2021/01/26 10:58:59;;;;;;;25.90;13.75;;;;;;;4.39;59.28;99172.53;5081795;28;20419;-79
2021/01/26 11:01:25;;;;;;;24.13;12.90;;;;;;;4.46;59.23;99174.03;5089876;28;20082;-78
2021/01/26 11:03:53;;;;;;;26.20;13.25;;;;;;;4.53;59.06;99172.94;5086989;28;20132;-78
2021/01/26 11:06:21;;;;;;;24.95;14.00;;;;;;;4.65;58.61;99165.69;5078262;28;20471;-78
2021/01/26 11:08:48;;;;;;;23.70;12.73;;;;;;;4.88;57.96;99171.00;5085899;28;20044;-78
2021/01/26 11:11:21;;;;;;;18.98;10.63;;;;;;;5.05;57.60;99173.06;5082386;28;20040;-79
2021/01/26 11:13:47;;;;;;;20.48;10.48;;;;;;;5.08;57.44;99168.59;5084572;28;20084;-79
2021/01/26 11:16:14;;;;;;;21.45;12.15;;;;;;;5.20;56.90;99168.19;5088592;28;20069;-78
2021/01/26 11:18:43;;;;;;;25.60;12.00;;;;;;;5.32;56.87;99155.69;5085733;28;20513;-79
2021/01/26 11:21:09;;;;;;;27.48;13.52;;;;;;;5.29;56.70;99163.59;5088197;28;20051;-78
2021/01/26 11:23:35;;;;;;;22.25;12.38;;;;;;;5.37;56.75;99164.16;5089303;28;20540;-78
2021/01/26 11:26:03;;;;;;;24.20;12.68;;;;;;;5.47;56.27;99165.56;5090091;28;20131;-79
2021/01/26 11:28:29;;;;;;;21.17;12.55;;;;;;;5.59;56.25;99169.44;5085679;28;20041;-76
2021/01/26 11:30:55;;;;;;;21.42;11.93;;;;;;;5.72;55.76;99161.19;5075071;28;20127;-77
2021/01/26 11:33:22;;;;;;;24.70;13.25;;;;;;;5.82;55.46;99166.88;5080799;28;20412;-79
2021/01/26 11:35:48;;;;;;;23.35;11.25;;;;;;;5.75;55.65;99176.66;5078066;28;20121;-77
2021/01/26 11:38:17;;;;;;;19.55;10.90;;;;;;;5.57;55.65;99172.09;5090748;28;20373;-79
2021/01/26 11:40:43;;;;;;;23.60;11.45;;;;;;;5.44;55.87;99160.47;5089126;28;20047;-80
2021/01/26 11:43:12;;;;;;;21.63;11.35;;;;;;;5.40;56.21;99164.91;5087114;28;20131;-79
2021/01/26 11:45:39;;;;;;;18.85;10.15;;;;;;;5.33;56.08;99163.41;5089976;28;20411;-78
2021/01/26 11:48:07;;;;;;;20.80;11.18;;;;;;;5.15;56.41;99172.69;5090631;28;20073;-78
2021/01/26 11:50:34;;;;;;;23.35;11.73;;;;;;;5.11;56.38;99188.44;5090408;28;20048;-80
2021/01/26 11:53:01;;;;;;;18.08;9.63;;;;;;;4.97;56.78;99170.69;5088649;28;20552;-79
2021/01/26 11:55:30;;;;;;;20.23;10.23;;;;;;;4.89;56.68;99170.94;5090919;28;20491;-79